sensor_id;sensor_type;location;lat;lon;timestamp;temperature;humidity
65421;DHT22;52028;50.658;14.004;2022-08-21T00:02:18;18.67;88.86
65421;DHT22;52028;50.658;14.004;2022-08-21T00:04:44;18.72;89.00
65421;DHT22;52028;50.658;14.004;2022-08-21T00:07:10;18.78;88.68
65421;DHT22;52028;50.658;14.004;2022-08-21T00:09:36;18.85;88.25
65421;DHT22;52028;50.658;14.004;2022-08-21T00:12:02;18.61;89.25
65421;DHT22;52028;50.658;14.004;2022-08-21T00:14:27;18.33;90.24
65421;DHT22;52028;50.658;14.004;2022-08-21T00:16:53;18.45;90.40
65421;DHT22;52028;50.658;14.004;2022-08-21T00:19:18;18.61;90.04
65421;DHT22;52028;50.658;14.004;2022-08-21T00:21:44;18.72;89.77
65421;DHT22;52028;50.658;14.004;2022-08-21T00:24:09;18.72;89.82
65421;DHT22;52028;50.658;14.004;2022-08-21T00:26:35;18.73;89.26
65421;DHT22;52028;50.658;14.004;2022-08-21T00:29:00;18.69;89.36
65421;DHT22;52028;50.658;14.004;2022-08-21T00:31:26;18.73;88.74
65421;DHT22;52028;50.658;14.004;2022-08-21T00:33:51;18.76;88.98
65421;DHT22;52028;50.658;14.004;2022-08-21T00:36:16;18.82;88.57
65421;DHT22;52028;50.658;14.004;2022-08-21T00:38:42;18.85;88.05
65421;DHT22;52028;50.658;14.004;2022-08-21T00:41:10;18.87;87.73
65421;DHT22;52028;50.658;14.004;2022-08-21T00:43:37;18.91;87.89
65421;DHT22;52028;50.658;14.004;2022-08-21T00:46:03;18.94;87.84
65421;DHT22;52028;50.658;14.004;2022-08-21T00:48:29;18.92;87.64
65421;DHT22;52028;50.658;14.004;2022-08-21T00:51:14;18.96;87.90
65421;DHT22;52028;50.658;14.004;2022-08-21T00:53:43;18.94;87.54
65421;DHT22;52028;50.658;14.004;2022-08-21T00:56:10;19.02;87.59
65421;DHT22;52028;50.658;14.004;2022-08-21T00:58:37;18.89;87.69
65421;DHT22;52028;50.658;14.004;2022-08-21T01:01:06;18.84;88.34
65421;DHT22;52028;50.658;14.004;2022-08-21T01:03:33;18.79;88.68
65421;DHT22;52028;50.658;14.004;2022-08-21T01:05:58;18.71;88.81
65421;DHT22;52028;50.658;14.004;2022-08-21T01:08:24;18.51;89.23
65421;DHT22;52028;50.658;14.004;2022-08-21T01:10:52;18.45;89.66
65421;DHT22;52028;50.658;14.004;2022-08-21T01:13:19;18.57;89.54
65421;DHT22;52028;50.658;14.004;2022-08-21T01:15:50;18.62;89.65
65421;DHT22;52028;50.658;14.004;2022-08-21T01:18:18;18.72;89.35
65421;DHT22;52028;50.658;14.004;2022-08-21T01:21:05;18.69;89.03
65421;DHT22;52028;50.658;14.004;2022-08-21T01:23:31;18.68;89.16
65421;DHT22;52028;50.658;14.004;2022-08-21T01:25:56;18.71;89.19
65421;DHT22;52028;50.658;14.004;2022-08-21T01:28:22;18.68;89.48
65421;DHT22;52028;50.658;14.004;2022-08-21T01:30:48;18.65;89.41
65421;DHT22;52028;50.658;14.004;2022-08-21T01:33:17;18.71;89.43
65421;DHT22;52028;50.658;14.004;2022-08-21T01:35:43;18.72;89.40
65421;DHT22;52028;50.658;14.004;2022-08-21T01:38:08;18.75;89.36
65421;DHT22;52028;50.658;14.004;2022-08-21T01:40:34;18.41;90.20
65421;DHT22;52028;50.658;14.004;2022-08-21T01:43:00;18.51;90.03
65421;DHT22;52028;50.658;14.004;2022-08-21T01:45:26;18.60;89.51
65421;DHT22;52028;50.658;14.004;2022-08-21T01:47:51;18.64;89.80
65421;DHT22;52028;50.658;14.004;2022-08-21T01:50:19;18.62;89.90
65421;DHT22;52028;50.658;14.004;2022-08-21T01:52:45;18.65;89.38
65421;DHT22;52028;50.658;14.004;2022-08-21T01:55:12;18.62;89.69
65421;DHT22;52028;50.658;14.004;2022-08-21T01:57:38;18.61;90.14
65421;DHT22;52028;50.658;14.004;2022-08-21T02:00:09;18.68;90.28
65421;DHT22;52028;50.658;14.004;2022-08-21T02:02:36;18.62;90.33
65421;DHT22;52028;50.658;14.004;2022-08-21T02:05:01;18.68;90.33
65421;DHT22;52028;50.658;14.004;2022-08-21T02:07:38;18.60;90.41
65421;DHT22;52028;50.658;14.004;2022-08-21T02:10:06;18.58;90.65
65421;DHT22;52028;50.658;14.004;2022-08-21T02:12:32;18.68;90.68
65421;DHT22;52028;50.658;14.004;2022-08-21T02:14:57;18.67;90.53
65421;DHT22;52028;50.658;14.004;2022-08-21T02:17:23;18.54;90.33
65421;DHT22;52028;50.658;14.004;2022-08-21T02:19:48;18.64;90.21
65421;DHT22;52028;50.658;14.004;2022-08-21T02:22:14;18.67;90.03
65421;DHT22;52028;50.658;14.004;2022-08-21T02:24:39;18.64;90.13
65421;DHT22;52028;50.658;14.004;2022-08-21T02:27:05;18.53;90.84
65421;DHT22;52028;50.658;14.004;2022-08-21T02:29:30;18.55;90.65
65421;DHT22;52028;50.658;14.004;2022-08-21T02:31:56;18.60;90.37
65421;DHT22;52028;50.658;14.004;2022-08-21T02:34:21;18.60;90.24
65421;DHT22;52028;50.658;14.004;2022-08-21T02:36:46;18.53;90.11
65421;DHT22;52028;50.658;14.004;2022-08-21T02:39:12;18.61;90.22
65421;DHT22;52028;50.658;14.004;2022-08-21T02:41:37;18.64;90.11
65421;DHT22;52028;50.658;14.004;2022-08-21T02:44:02;18.58;90.25
65421;DHT22;52028;50.658;14.004;2022-08-21T02:46:28;18.64;90.28
65421;DHT22;52028;50.658;14.004;2022-08-21T02:48:53;18.58;90.13
65421;DHT22;52028;50.658;14.004;2022-08-21T02:51:19;18.54;90.36
65421;DHT22;52028;50.658;14.004;2022-08-21T02:53:46;18.40;90.49
65421;DHT22;52028;50.658;14.004;2022-08-21T02:56:14;18.38;91.02
65421;DHT22;52028;50.658;14.004;2022-08-21T02:58:46;18.38;90.98
65421;DHT22;52028;50.658;14.004;2022-08-21T03:01:12;18.40;91.13
65421;DHT22;52028;50.658;14.004;2022-08-21T03:03:40;18.43;91.31
65421;DHT22;52028;50.658;14.004;2022-08-21T03:06:07;18.43;91.22
65421;DHT22;52028;50.658;14.004;2022-08-21T03:08:33;18.37;91.13
65421;DHT22;52028;50.658;14.004;2022-08-21T03:10:59;18.40;91.40
65421;DHT22;52028;50.658;14.004;2022-08-21T03:13:25;18.38;91.68
65421;DHT22;52028;50.658;14.004;2022-08-21T03:15:51;18.29;91.77
65421;DHT22;52028;50.658;14.004;2022-08-21T03:18:17;18.33;92.05
65421;DHT22;52028;50.658;14.004;2022-08-21T03:20:44;18.33;92.05
65421;DHT22;52028;50.658;14.004;2022-08-21T03:23:10;18.32;91.69
65421;DHT22;52028;50.658;14.004;2022-08-21T03:25:37;18.30;91.65
65421;DHT22;52028;50.658;14.004;2022-08-21T03:28:05;18.34;91.58
65421;DHT22;52028;50.658;14.004;2022-08-21T03:30:31;18.30;91.61
65421;DHT22;52028;50.658;14.004;2022-08-21T03:32:58;18.22;91.32
65421;DHT22;52028;50.658;14.004;2022-08-21T03:35:24;18.36;90.87
65421;DHT22;52028;50.658;14.004;2022-08-21T03:37:50;18.37;90.10
65421;DHT22;52028;50.658;14.004;2022-08-21T03:40:17;18.22;90.43
65421;DHT22;52028;50.658;14.004;2022-08-21T03:42:43;18.36;90.49
65421;DHT22;52028;50.658;14.004;2022-08-21T03:45:13;18.19;89.09
65421;DHT22;52028;50.658;14.004;2022-08-21T03:47:39;18.33;89.34
65421;DHT22;52028;50.658;14.004;2022-08-21T03:50:04;18.37;88.43
65421;DHT22;52028;50.658;14.004;2022-08-21T03:52:30;18.41;88.17
65421;DHT22;52028;50.658;14.004;2022-08-21T03:54:56;18.43;87.93
65421;DHT22;52028;50.658;14.004;2022-08-21T03:57:21;18.55;87.66
65421;DHT22;52028;50.658;14.004;2022-08-21T03:59:47;18.60;86.87
65421;DHT22;52028;50.658;14.004;2022-08-21T04:02:13;18.50;85.34
65421;DHT22;52028;50.658;14.004;2022-08-21T04:04:41;18.64;86.41
65421;DHT22;52028;50.658;14.004;2022-08-21T04:07:06;18.65;87.19
65421;DHT22;52028;50.658;14.004;2022-08-21T04:09:31;18.68;86.39
65421;DHT22;52028;50.658;14.004;2022-08-21T04:11:58;18.65;87.05
65421;DHT22;52028;50.658;14.004;2022-08-21T04:14:24;18.58;87.63
65421;DHT22;52028;50.658;14.004;2022-08-21T04:16:50;18.57;87.62
65421;DHT22;52028;50.658;14.004;2022-08-21T04:19:15;18.58;86.74
65421;DHT22;52028;50.658;14.004;2022-08-21T04:21:41;18.67;86.23
65421;DHT22;52028;50.658;14.004;2022-08-21T04:24:08;18.64;87.30
65421;DHT22;52028;50.658;14.004;2022-08-21T04:26:35;18.51;86.13
65421;DHT22;52028;50.658;14.004;2022-08-21T04:29:01;18.45;85.48
65421;DHT22;52028;50.658;14.004;2022-08-21T04:31:27;18.44;85.61
65421;DHT22;52028;50.658;14.004;2022-08-21T04:33:54;18.41;85.19
65421;DHT22;52028;50.658;14.004;2022-08-21T04:36:19;18.48;84.60
65421;DHT22;52028;50.658;14.004;2022-08-21T04:38:44;18.51;84.10
65421;DHT22;52028;50.658;14.004;2022-08-21T04:41:10;18.51;85.13
65421;DHT22;52028;50.658;14.004;2022-08-21T04:43:35;18.51;84.95
65421;DHT22;52028;50.658;14.004;2022-08-21T04:46:00;18.44;84.30
65421;DHT22;52028;50.658;14.004;2022-08-21T04:48:26;18.38;84.43
65421;DHT22;52028;50.658;14.004;2022-08-21T04:50:57;18.55;85.66
65421;DHT22;52028;50.658;14.004;2022-08-21T04:53:24;18.62;85.14
65421;DHT22;52028;50.658;14.004;2022-08-21T04:55:51;18.60;85.10
65421;DHT22;52028;50.658;14.004;2022-08-21T04:58:21;18.67;85.29
65421;DHT22;52028;50.658;14.004;2022-08-21T05:00:52;18.68;85.13
65421;DHT22;52028;50.658;14.004;2022-08-21T05:03:18;18.67;84.82
65421;DHT22;52028;50.658;14.004;2022-08-21T05:05:43;18.64;85.23
65421;DHT22;52028;50.658;14.004;2022-08-21T05:08:12;18.60;85.75
65421;DHT22;52028;50.658;14.004;2022-08-21T05:10:39;18.69;85.76
65421;DHT22;52028;50.658;14.004;2022-08-21T05:13:05;18.64;85.94
65421;DHT22;52028;50.658;14.004;2022-08-21T05:15:32;18.65;86.32
65421;DHT22;52028;50.658;14.004;2022-08-21T05:17:57;18.72;86.45
65421;DHT22;52028;50.658;14.004;2022-08-21T05:20:23;18.78;86.77
65421;DHT22;52028;50.658;14.004;2022-08-21T05:22:48;18.81;86.92
65421;DHT22;52028;50.658;14.004;2022-08-21T05:25:14;18.89;86.91
65421;DHT22;52028;50.658;14.004;2022-08-21T05:27:39;18.92;86.89
65421;DHT22;52028;50.658;14.004;2022-08-21T05:30:07;18.94;86.86
65421;DHT22;52028;50.658;14.004;2022-08-21T05:32:33;18.92;86.98
65421;DHT22;52028;50.658;14.004;2022-08-21T05:34:59;18.95;87.06
65421;DHT22;52028;50.658;14.004;2022-08-21T05:37:26;18.75;86.04
65421;DHT22;52028;50.658;14.004;2022-08-21T05:39:51;18.84;86.04
65421;DHT22;52028;50.658;14.004;2022-08-21T05:42:16;18.55;85.71
65421;DHT22;52028;50.658;14.004;2022-08-21T05:44:42;18.58;85.68
65421;DHT22;52028;50.658;14.004;2022-08-21T05:47:09;18.78;85.14
65421;DHT22;52028;50.658;14.004;2022-08-21T05:49:35;18.87;85.12
65421;DHT22;52028;50.658;14.004;2022-08-21T05:52:01;18.96;85.89
65421;DHT22;52028;50.658;14.004;2022-08-21T05:54:27;19.05;85.07
65421;DHT22;52028;50.658;14.004;2022-08-21T05:56:53;19.15;84.13
65421;DHT22;52028;50.658;14.004;2022-08-21T05:59:18;19.24;84.00
65421;DHT22;52028;50.658;14.004;2022-08-21T06:01:44;19.23;83.94
65421;DHT22;52028;50.658;14.004;2022-08-21T06:04:11;19.30;83.89
65421;DHT22;52028;50.658;14.004;2022-08-21T06:06:36;19.13;84.38
65421;DHT22;52028;50.658;14.004;2022-08-21T06:09:03;19.17;84.98
65421;DHT22;52028;50.658;14.004;2022-08-21T06:11:29;19.24;84.43
65421;DHT22;52028;50.658;14.004;2022-08-21T06:13:54;19.15;83.84
65421;DHT22;52028;50.658;14.004;2022-08-21T06:16:19;19.30;83.85
65421;DHT22;52028;50.658;14.004;2022-08-21T06:18:45;19.37;84.67
65421;DHT22;52028;50.658;14.004;2022-08-21T06:21:10;19.46;83.50
65421;DHT22;52028;50.658;14.004;2022-08-21T06:23:37;19.50;82.50
65421;DHT22;52028;50.658;14.004;2022-08-21T06:26:04;19.55;82.31
65421;DHT22;52028;50.658;14.004;2022-08-21T06:28:30;19.46;83.76
65421;DHT22;52028;50.658;14.004;2022-08-21T06:30:56;19.58;83.88
65421;DHT22;52028;50.658;14.004;2022-08-21T06:33:21;19.54;83.24
65421;DHT22;52028;50.658;14.004;2022-08-21T06:35:46;19.47;82.69
65421;DHT22;52028;50.658;14.004;2022-08-21T06:38:12;19.61;82.23
65421;DHT22;52028;50.658;14.004;2022-08-21T06:40:38;19.71;82.03
65421;DHT22;52028;50.658;14.004;2022-08-21T06:43:12;19.78;82.14
65421;DHT22;52028;50.658;14.004;2022-08-21T06:45:38;19.92;82.28
65421;DHT22;52028;50.658;14.004;2022-08-21T06:48:03;20.00;82.17
65421;DHT22;52028;50.658;14.004;2022-08-21T06:50:29;20.00;80.98
65421;DHT22;52028;50.658;14.004;2022-08-21T06:53:00;20.12;81.36
65421;DHT22;52028;50.658;14.004;2022-08-21T06:55:26;19.99;81.32
65421;DHT22;52028;50.658;14.004;2022-08-21T06:57:52;20.12;81.84
65421;DHT22;52028;50.658;14.004;2022-08-21T07:00:18;20.24;82.03
65421;DHT22;52028;50.658;14.004;2022-08-21T07:02:43;20.31;82.43
65421;DHT22;52028;50.658;14.004;2022-08-21T07:05:09;20.33;82.31
65421;DHT22;52028;50.658;14.004;2022-08-21T07:07:34;20.43;81.85
65421;DHT22;52028;50.658;14.004;2022-08-21T07:09:59;20.41;81.55
65421;DHT22;52028;50.658;14.004;2022-08-21T07:12:25;20.47;78.93
65421;DHT22;52028;50.658;14.004;2022-08-21T07:14:51;20.50;78.97
65421;DHT22;52028;50.658;14.004;2022-08-21T07:17:17;20.31;79.41
65421;DHT22;52028;50.658;14.004;2022-08-21T07:19:42;20.41;79.18
65421;DHT22;52028;50.658;14.004;2022-08-21T07:22:07;20.58;79.16
65421;DHT22;52028;50.658;14.004;2022-08-21T07:24:33;20.26;78.45
65421;DHT22;52028;50.658;14.004;2022-08-21T07:26:58;19.99;79.50
65421;DHT22;52028;50.658;14.004;2022-08-21T07:29:23;20.27;79.23
65421;DHT22;52028;50.658;14.004;2022-08-21T07:31:49;20.54;78.76
65421;DHT22;52028;50.658;14.004;2022-08-21T07:34:14;20.67;79.55
65421;DHT22;52028;50.658;14.004;2022-08-21T07:36:40;20.78;79.51
65421;DHT22;52028;50.658;14.004;2022-08-21T07:39:05;20.86;78.77
65421;DHT22;52028;50.658;14.004;2022-08-21T07:41:30;20.88;78.82
65421;DHT22;52028;50.658;14.004;2022-08-21T07:43:57;20.84;78.88
65421;DHT22;52028;50.658;14.004;2022-08-21T07:46:23;20.82;79.62
65421;DHT22;52028;50.658;14.004;2022-08-21T07:48:49;20.79;78.52
65421;DHT22;52028;50.658;14.004;2022-08-21T07:51:16;20.69;79.83
65421;DHT22;52028;50.658;14.004;2022-08-21T07:53:42;20.57;79.29
65421;DHT22;52028;50.658;14.004;2022-08-21T07:56:12;20.65;78.97
65421;DHT22;52028;50.658;14.004;2022-08-21T07:58:37;20.76;78.57
65421;DHT22;52028;50.658;14.004;2022-08-21T08:01:05;20.89;79.14
65421;DHT22;52028;50.658;14.004;2022-08-21T08:03:30;20.89;79.45
65421;DHT22;52028;50.658;14.004;2022-08-21T08:05:56;20.91;78.63
65421;DHT22;52028;50.658;14.004;2022-08-21T08:08:21;20.89;79.04
65421;DHT22;52028;50.658;14.004;2022-08-21T08:10:47;20.92;79.12
65421;DHT22;52028;50.658;14.004;2022-08-21T08:13:14;21.02;78.40
65421;DHT22;52028;50.658;14.004;2022-08-21T08:15:40;20.82;78.40
65421;DHT22;52028;50.658;14.004;2022-08-21T08:18:05;21.24;77.83
65421;DHT22;52028;50.658;14.004;2022-08-21T08:20:30;21.48;76.74
65421;DHT22;52028;50.658;14.004;2022-08-21T08:22:56;21.68;76.20
65421;DHT22;52028;50.658;14.004;2022-08-21T08:25:22;21.85;75.25
65421;DHT22;52028;50.658;14.004;2022-08-21T08:27:48;21.98;74.89
65421;DHT22;52028;50.658;14.004;2022-08-21T08:30:16;21.98;74.90
65421;DHT22;52028;50.658;14.004;2022-08-21T08:32:42;21.98;75.04
65421;DHT22;52028;50.658;14.004;2022-08-21T08:35:08;21.88;74.91
65421;DHT22;52028;50.658;14.004;2022-08-21T08:37:34;21.86;74.06
65421;DHT22;52028;50.658;14.004;2022-08-21T08:40:03;21.85;73.95
65421;DHT22;52028;50.658;14.004;2022-08-21T08:42:32;21.91;73.99
65421;DHT22;52028;50.658;14.004;2022-08-21T08:45:13;21.82;74.08
65421;DHT22;52028;50.658;14.004;2022-08-21T08:48:08;21.72;74.48
65421;DHT22;52028;50.658;14.004;2022-08-21T08:50:49;21.86;74.24
65421;DHT22;52028;50.658;14.004;2022-08-21T08:53:27;21.61;75.11
65421;DHT22;52028;50.658;14.004;2022-08-21T08:55:57;21.61;75.31
65421;DHT22;52028;50.658;14.004;2022-08-21T08:58:27;21.57;75.48
65421;DHT22;52028;50.658;14.004;2022-08-21T09:00:53;21.53;75.77
65421;DHT22;52028;50.658;14.004;2022-08-21T09:03:25;21.58;75.80
65421;DHT22;52028;50.658;14.004;2022-08-21T09:06:04;21.57;76.35
65421;DHT22;52028;50.658;14.004;2022-08-21T09:12:01;21.69;76.55
65421;DHT22;52028;50.658;14.004;2022-08-21T09:19:47;21.85;75.23
65421;DHT22;52028;50.658;14.004;2022-08-21T09:25:06;22.21;74.26
65421;DHT22;52028;50.658;14.004;2022-08-21T09:27:33;22.33;72.65
65421;DHT22;52028;50.658;14.004;2022-08-21T09:29:59;22.16;73.00
65421;DHT22;52028;50.658;14.004;2022-08-21T09:32:27;22.26;72.93
65421;DHT22;52028;50.658;14.004;2022-08-21T09:37:22;22.16;70.05
65421;DHT22;52028;50.658;14.004;2022-08-21T09:39:48;21.96;72.75
65421;DHT22;52028;50.658;14.004;2022-08-21T09:42:28;21.96;72.46
65421;DHT22;52028;50.658;14.004;2022-08-21T09:45:15;22.02;71.65
65421;DHT22;52028;50.658;14.004;2022-08-21T09:47:41;22.03;70.38
65421;DHT22;52028;50.658;14.004;2022-08-21T09:50:21;22.00;70.32
65421;DHT22;52028;50.658;14.004;2022-08-21T09:52:53;21.96;68.74
65421;DHT22;52028;50.658;14.004;2022-08-21T09:55:38;22.19;69.78
65421;DHT22;52028;50.658;14.004;2022-08-21T09:58:31;22.44;68.93
65421;DHT22;52028;50.658;14.004;2022-08-21T10:00:59;22.75;68.24
65421;DHT22;52028;50.658;14.004;2022-08-21T10:03:25;23.05;65.91
65421;DHT22;52028;50.658;14.004;2022-08-21T10:05:56;23.24;64.84
65421;DHT22;52028;50.658;14.004;2022-08-21T10:08:23;23.58;63.94
65421;DHT22;52028;50.658;14.004;2022-08-21T10:10:56;23.62;63.37
65421;DHT22;52028;50.658;14.004;2022-08-21T10:13:34;23.61;61.65
65421;DHT22;52028;50.658;14.004;2022-08-21T10:16:15;23.51;61.66
65421;DHT22;52028;50.658;14.004;2022-08-21T10:24:34;23.58;56.78
65421;DHT22;52028;50.658;14.004;2022-08-21T10:40:22;23.41;52.12
65421;DHT22;52028;50.658;14.004;2022-08-21T10:43:03;23.86;53.38
65421;DHT22;52028;50.658;14.004;2022-08-21T10:48:28;23.72;52.14
65421;DHT22;52028;50.658;14.004;2022-08-21T10:56:26;23.81;52.08
65421;DHT22;52028;50.658;14.004;2022-08-21T11:04:23;24.22;52.16
65421;DHT22;52028;50.658;14.004;2022-08-21T11:06:54;24.44;51.42
65421;DHT22;52028;50.658;14.004;2022-08-21T11:09:24;24.83;49.96
65421;DHT22;52028;50.658;14.004;2022-08-21T11:11:55;24.95;49.63
65421;DHT22;52028;50.658;14.004;2022-08-21T11:14:25;24.93;49.69
65421;DHT22;52028;50.658;14.004;2022-08-21T11:17:06;24.91;48.99
65421;DHT22;52028;50.658;14.004;2022-08-21T11:19:45;24.89;49.74
65421;DHT22;52028;50.658;14.004;2022-08-21T11:22:21;24.83;51.11
65421;DHT22;52028;50.658;14.004;2022-08-21T11:27:33;24.58;49.73
65421;DHT22;52028;50.658;14.004;2022-08-21T11:30:03;24.88;49.21
65421;DHT22;52028;50.658;14.004;2022-08-21T11:40:48;27.33;43.38
65421;DHT22;52028;50.658;14.004;2022-08-21T11:43:41;28.30;42.91
65421;DHT22;52028;50.658;14.004;2022-08-21T11:48:59;28.63;40.00
65421;DHT22;52028;50.658;14.004;2022-08-21T11:51:38;29.78;39.96
65421;DHT22;52028;50.658;14.004;2022-08-21T11:56:40;28.60;40.37
65421;DHT22;52028;50.658;14.004;2022-08-21T11:59:15;28.69;41.74
65421;DHT22;52028;50.658;14.004;2022-08-21T12:01:44;28.32;38.90
65421;DHT22;52028;50.658;14.004;2022-08-21T12:04:22;29.40;36.55
65421;DHT22;52028;50.658;14.004;2022-08-21T12:06:47;29.37;36.69
65421;DHT22;52028;50.658;14.004;2022-08-21T12:12:00;29.85;36.88
65421;DHT22;52028;50.658;14.004;2022-08-21T12:14:36;30.96;34.85
65421;DHT22;52028;50.658;14.004;2022-08-21T12:17:06;32.01;33.41
65421;DHT22;52028;50.658;14.004;2022-08-21T12:19:32;32.20;33.30
65421;DHT22;52028;50.658;14.004;2022-08-21T12:26:57;32.61;31.12
65421;DHT22;52028;50.658;14.004;2022-08-21T12:29:26;31.29;32.71
65421;DHT22;52028;50.658;14.004;2022-08-21T12:32:01;31.16;34.43
65421;DHT22;52028;50.658;14.004;2022-08-21T12:34:34;31.50;33.59
65421;DHT22;52028;50.658;14.004;2022-08-21T12:37:04;33.02;30.29
65421;DHT22;52028;50.658;14.004;2022-08-21T12:39:32;33.61;30.13
65421;DHT22;52028;50.658;14.004;2022-08-21T12:42:15;33.66;30.59
65421;DHT22;52028;50.658;14.004;2022-08-21T12:47:27;31.68;31.34
65421;DHT22;52028;50.658;14.004;2022-08-21T12:52:33;27.95;38.19
65421;DHT22;52028;50.658;14.004;2022-08-21T12:54:59;27.92;39.78
65421;DHT22;52028;50.658;14.004;2022-08-21T12:57:27;28.85;37.06
65421;DHT22;52028;50.658;14.004;2022-08-21T12:59:55;28.24;37.58
65421;DHT22;52028;50.658;14.004;2022-08-21T13:02:26;28.79;37.90
65421;DHT22;52028;50.658;14.004;2022-08-21T13:04:53;30.16;36.11
65421;DHT22;52028;50.658;14.004;2022-08-21T13:07:26;30.94;33.93
65421;DHT22;52028;50.658;14.004;2022-08-21T13:09:56;31.70;32.22
65421;DHT22;52028;50.658;14.004;2022-08-21T13:12:23;32.74;31.60
65421;DHT22;52028;50.658;14.004;2022-08-21T13:14:51;31.89;31.92
65421;DHT22;52028;50.658;14.004;2022-08-21T13:17:19;31.30;33.18
65421;DHT22;52028;50.658;14.004;2022-08-21T13:20:00;32.16;31.96
65421;DHT22;52028;50.658;14.004;2022-08-21T13:22:27;33.49;29.76
65421;DHT22;52028;50.658;14.004;2022-08-21T13:24:53;33.71;29.51
65421;DHT22;52028;50.658;14.004;2022-08-21T13:27:29;32.23;31.64
65421;DHT22;52028;50.658;14.004;2022-08-21T13:30:10;29.72;35.10
65421;DHT22;52028;50.658;14.004;2022-08-21T13:32:40;31.70;32.27
65421;DHT22;52028;50.658;14.004;2022-08-21T13:35:11;32.53;29.85
65421;DHT22;52028;50.658;14.004;2022-08-21T13:37:39;32.05;30.28
65421;DHT22;52028;50.658;14.004;2022-08-21T13:40:07;31.82;30.46
65421;DHT22;52028;50.658;14.004;2022-08-21T13:42:34;31.65;31.10
65421;DHT22;52028;50.658;14.004;2022-08-21T13:44:59;32.40;29.46
65421;DHT22;52028;50.658;14.004;2022-08-21T13:47:25;31.61;30.98
65421;DHT22;52028;50.658;14.004;2022-08-21T13:49:52;33.04;30.14
65421;DHT22;52028;50.658;14.004;2022-08-21T13:52:24;34.86;27.44
65421;DHT22;52028;50.658;14.004;2022-08-21T13:55:00;34.54;27.36
65421;DHT22;52028;50.658;14.004;2022-08-21T13:57:28;33.94;28.41
65421;DHT22;52028;50.658;14.004;2022-08-21T14:00:20;33.40;28.45
65421;DHT22;52028;50.658;14.004;2022-08-21T14:02:52;34.54;27.35
65421;DHT22;52028;50.658;14.004;2022-08-21T14:05:26;34.39;26.61
65421;DHT22;52028;50.658;14.004;2022-08-21T14:08:10;34.54;27.08
65421;DHT22;52028;50.658;14.004;2022-08-21T14:10:43;35.14;25.97
65421;DHT22;52028;50.658;14.004;2022-08-21T14:13:29;35.60;26.23
65421;DHT22;52028;50.658;14.004;2022-08-21T14:16:00;35.54;26.53
65421;DHT22;52028;50.658;14.004;2022-08-21T14:18:27;34.68;26.60
65421;DHT22;52028;50.658;14.004;2022-08-21T14:21:04;35.42;27.24
65421;DHT22;52028;50.658;14.004;2022-08-21T14:23:30;33.25;28.73
65421;DHT22;52028;50.658;14.004;2022-08-21T14:26:00;30.50;32.98
65421;DHT22;52028;50.658;14.004;2022-08-21T14:28:33;31.02;32.81
65421;DHT22;52028;50.658;14.004;2022-08-21T14:31:15;31.46;31.75
65421;DHT22;52028;50.658;14.004;2022-08-21T14:33:41;30.99;32.35
65421;DHT22;52028;50.658;14.004;2022-08-21T14:36:06;31.34;31.30
65421;DHT22;52028;50.658;14.004;2022-08-21T14:38:35;33.47;28.22
65421;DHT22;52028;50.658;14.004;2022-08-21T14:41:25;33.11;28.99
65421;DHT22;52028;50.658;14.004;2022-08-21T14:43:54;33.80;28.32
65421;DHT22;52028;50.658;14.004;2022-08-21T14:46:24;34.16;27.35
65421;DHT22;52028;50.658;14.004;2022-08-21T14:48:50;35.24;26.86
65421;DHT22;52028;50.658;14.004;2022-08-21T14:51:16;35.86;26.11
65421;DHT22;52028;50.658;14.004;2022-08-21T14:53:42;36.14;25.58
65421;DHT22;52028;50.658;14.004;2022-08-21T14:56:08;35.15;27.15
65421;DHT22;52028;50.658;14.004;2022-08-21T14:58:37;33.92;28.91
65421;DHT22;52028;50.658;14.004;2022-08-21T15:01:05;34.16;27.98
65421;DHT22;52028;50.658;14.004;2022-08-21T15:03:31;33.51;28.75
65421;DHT22;52028;50.658;14.004;2022-08-21T15:05:57;32.87;29.77
65421;DHT22;52028;50.658;14.004;2022-08-21T15:08:23;33.21;30.01
65421;DHT22;52028;50.658;14.004;2022-08-21T15:10:48;33.84;28.89
65421;DHT22;52028;50.658;14.004;2022-08-21T15:13:14;34.49;27.14
65421;DHT22;52028;50.658;14.004;2022-08-21T15:15:44;34.86;27.43
65421;DHT22;52028;50.658;14.004;2022-08-21T15:18:10;33.05;29.32
65421;DHT22;52028;50.658;14.004;2022-08-21T15:20:37;32.22;29.22
65421;DHT22;52028;50.658;14.004;2022-08-21T15:23:05;31.11;31.93
65421;DHT22;52028;50.658;14.004;2022-08-21T15:25:30;30.40;33.05
65421;DHT22;52028;50.658;14.004;2022-08-21T15:27:56;30.61;32.78
65421;DHT22;52028;50.658;14.004;2022-08-21T15:30:22;30.06;33.92
65421;DHT22;52028;50.658;14.004;2022-08-21T15:32:47;30.43;32.77
65421;DHT22;52028;50.658;14.004;2022-08-21T15:35:13;31.11;32.41
65421;DHT22;52028;50.658;14.004;2022-08-21T15:37:38;31.20;31.93
65421;DHT22;52028;50.658;14.004;2022-08-21T15:40:04;31.46;32.30
65421;DHT22;52028;50.658;14.004;2022-08-21T15:42:32;30.89;31.97
65421;DHT22;52028;50.658;14.004;2022-08-21T15:44:57;31.37;31.96
65421;DHT22;52028;50.658;14.004;2022-08-21T15:47:31;31.25;31.67
65421;DHT22;52028;50.658;14.004;2022-08-21T15:49:58;31.82;31.42
65421;DHT22;52028;50.658;14.004;2022-08-21T15:52:23;32.60;30.07
65421;DHT22;52028;50.658;14.004;2022-08-21T15:54:49;33.18;29.25
65421;DHT22;52028;50.658;14.004;2022-08-21T15:57:19;33.51;28.67
65421;DHT22;52028;50.658;14.004;2022-08-21T15:59:49;32.84;29.55
65421;DHT22;52028;50.658;14.004;2022-08-21T16:02:18;33.04;30.13
65421;DHT22;52028;50.658;14.004;2022-08-21T16:04:44;32.82;29.91
65421;DHT22;52028;50.658;14.004;2022-08-21T16:07:10;32.95;30.08
65421;DHT22;52028;50.658;14.004;2022-08-21T16:09:36;32.56;29.98
65421;DHT22;52028;50.658;14.004;2022-08-21T16:12:03;31.93;31.16
65421;DHT22;52028;50.658;14.004;2022-08-21T16:14:30;31.26;32.64
65421;DHT22;52028;50.658;14.004;2022-08-21T16:16:56;30.24;33.96
65421;DHT22;52028;50.658;14.004;2022-08-21T16:19:21;28.94;36.47
65421;DHT22;52028;50.658;14.004;2022-08-21T16:21:47;28.01;37.30
65421;DHT22;52028;50.658;14.004;2022-08-21T16:24:12;27.16;38.98
65421;DHT22;52028;50.658;14.004;2022-08-21T16:26:38;26.10;41.16
65421;DHT22;52028;50.658;14.004;2022-08-21T16:29:04;25.22;43.63
65421;DHT22;52028;50.658;14.004;2022-08-21T16:31:32;24.78;44.32
65421;DHT22;52028;50.658;14.004;2022-08-21T16:33:58;24.46;44.94
65421;DHT22;52028;50.658;14.004;2022-08-21T16:36:24;24.12;44.99
65421;DHT22;52028;50.658;14.004;2022-08-21T16:38:51;23.96;46.42